sensor_id;sensor_type;location;lat;lon;timestamp;P1;durP1;ratioP1;P2;durP2;ratioP2
65358;SDS011;52491;45.900;6.346;2022-12-07T00:01:07;5.90;;;4.72;;
65358;SDS011;52491;45.900;6.346;2022-12-07T00:03:34;5.65;;;4.72;;
65358;SDS011;52491;45.900;6.346;2022-12-07T00:06:00;5.65;;;5.03;;
65358;SDS011;52491;45.900;6.346;2022-12-07T00:08:27;5.95;;;4.40;;
65358;SDS011;52491;45.900;6.346;2022-12-07T00:10:53;5.53;;;4.53;;
65358;SDS011;52491;45.900;6.346;2022-12-07T00:13:18;5.22;;;4.20;;
65358;SDS011;52491;45.900;6.346;2022-12-07T00:15:44;5.15;;;4.07;;
65358;SDS011;52491;45.900;6.346;2022-12-07T00:18:10;7.07;;;4.20;;
65358;SDS011;52491;45.900;6.346;2022-12-07T00:20:36;6.55;;;4.57;;
65358;SDS011;52491;45.900;6.346;2022-12-07T00:23:01;4.72;;;4.20;;
65358;SDS011;52491;45.900;6.346;2022-12-07T00:25:27;6.25;;;5.03;;
65358;SDS011;52491;45.900;6.346;2022-12-07T00:27:53;5.65;;;4.55;;
65358;SDS011;52491;45.900;6.346;2022-12-07T00:30:21;5.65;;;4.22;;
65358;SDS011;52491;45.900;6.346;2022-12-07T00:32:47;5.28;;;4.43;;
65358;SDS011;52491;45.900;6.346;2022-12-07T00:35:13;6.03;;;5.13;;
65358;SDS011;52491;45.900;6.346;2022-12-07T00:37:39;5.38;;;4.38;;
65358;SDS011;52491;45.900;6.346;2022-12-07T00:40:05;7.53;;;3.97;;
65358;SDS011;52491;45.900;6.346;2022-12-07T00:42:31;6.13;;;4.35;;
65358;SDS011;52491;45.900;6.346;2022-12-07T00:44:57;6.28;;;4.53;;
65358;SDS011;52491;45.900;6.346;2022-12-07T00:47:22;5.65;;;4.88;;
65358;SDS011;52491;45.900;6.346;2022-12-07T00:49:48;5.50;;;4.72;;
65358;SDS011;52491;45.900;6.346;2022-12-07T00:52:14;6.88;;;5.65;;
65358;SDS011;52491;45.900;6.346;2022-12-07T00:54:39;7.10;;;4.78;;
65358;SDS011;52491;45.900;6.346;2022-12-07T00:57:05;5.57;;;4.53;;
65358;SDS011;52491;45.900;6.346;2022-12-07T00:59:32;5.68;;;4.32;;
65358;SDS011;52491;45.900;6.346;2022-12-07T01:01:58;6.35;;;4.55;;
65358;SDS011;52491;45.900;6.346;2022-12-07T01:04:24;5.00;;;4.28;;
65358;SDS011;52491;45.900;6.346;2022-12-07T01:06:49;5.13;;;4.28;;
65358;SDS011;52491;45.900;6.346;2022-12-07T01:09:15;5.75;;;4.45;;
65358;SDS011;52491;45.900;6.346;2022-12-07T01:11:40;5.50;;;4.70;;
65358;SDS011;52491;45.900;6.346;2022-12-07T01:14:06;5.38;;;4.53;;
65358;SDS011;52491;45.900;6.346;2022-12-07T01:16:32;4.40;;;4.00;;
65358;SDS011;52491;45.900;6.346;2022-12-07T01:18:58;5.20;;;3.83;;
65358;SDS011;52491;45.900;6.346;2022-12-07T01:21:26;5.30;;;4.18;;
65358;SDS011;52491;45.900;6.346;2022-12-07T01:23:54;6.20;;;4.78;;
65358;SDS011;52491;45.900;6.346;2022-12-07T01:26:22;5.10;;;4.15;;
65358;SDS011;52491;45.900;6.346;2022-12-07T01:28:49;4.35;;;3.95;;
65358;SDS011;52491;45.900;6.346;2022-12-07T01:31:17;5.50;;;4.45;;
65358;SDS011;52491;45.900;6.346;2022-12-07T01:33:45;4.90;;;3.55;;
65358;SDS011;52491;45.900;6.346;2022-12-07T01:36:14;4.40;;;3.85;;
65358;SDS011;52491;45.900;6.346;2022-12-07T01:38:46;4.72;;;4.22;;
65358;SDS011;52491;45.900;6.346;2022-12-07T01:41:13;5.47;;;4.68;;
65358;SDS011;52491;45.900;6.346;2022-12-07T01:46:49;4.70;;;3.67;;
65358;SDS011;52491;45.900;6.346;2022-12-07T01:51:50;4.15;;;3.67;;
65358;SDS011;52491;45.900;6.346;2022-12-07T01:54:20;5.00;;;3.70;;
65358;SDS011;52491;45.900;6.346;2022-12-07T01:56:51;4.75;;;4.13;;
65358;SDS011;52491;45.900;6.346;2022-12-07T01:59:19;4.53;;;3.60;;
65358;SDS011;52491;45.900;6.346;2022-12-07T02:01:47;4.35;;;3.55;;
65358;SDS011;52491;45.900;6.346;2022-12-07T02:04:13;3.75;;;3.15;;
65358;SDS011;52491;45.900;6.346;2022-12-07T02:06:39;4.30;;;3.75;;
65358;SDS011;52491;45.900;6.346;2022-12-07T02:09:06;4.45;;;3.53;;
65358;SDS011;52491;45.900;6.346;2022-12-07T02:11:32;4.90;;;3.60;;
65358;SDS011;52491;45.900;6.346;2022-12-07T02:13:58;6.47;;;4.20;;
65358;SDS011;52491;45.900;6.346;2022-12-07T02:32:40;4.35;;;3.38;;
65358;SDS011;52491;45.900;6.346;2022-12-07T02:40:43;5.43;;;4.00;;
65358;SDS011;52491;45.900;6.346;2022-12-07T02:43:22;4.20;;;3.80;;
65358;SDS011;52491;45.900;6.346;2022-12-07T02:45:55;5.35;;;3.88;;
65358;SDS011;52491;45.900;6.346;2022-12-07T02:48:26;5.03;;;3.42;;
65358;SDS011;52491;45.900;6.346;2022-12-07T02:50:53;3.45;;;2.78;;
65358;SDS011;52491;45.900;6.346;2022-12-07T02:56:12;4.15;;;3.33;;
65358;SDS011;52491;45.900;6.346;2022-12-07T02:59:02;3.45;;;3.03;;
65358;SDS011;52491;45.900;6.346;2022-12-07T03:07:45;3.42;;;3.13;;
65358;SDS011;52491;45.900;6.346;2022-12-07T03:10:27;3.88;;;3.15;;
65358;SDS011;52491;45.900;6.346;2022-12-07T03:13:04;4.82;;;2.90;;
65358;SDS011;52491;45.900;6.346;2022-12-07T03:15:34;5.30;;;2.97;;
65358;SDS011;52491;45.900;6.346;2022-12-07T03:18:25;4.00;;;3.63;;
65358;SDS011;52491;45.900;6.346;2022-12-07T03:20:55;4.63;;;3.55;;
65358;SDS011;52491;45.900;6.346;2022-12-07T03:23:25;3.83;;;3.20;;
65358;SDS011;52491;45.900;6.346;2022-12-07T03:25:54;3.35;;;3.05;;
65358;SDS011;52491;45.900;6.346;2022-12-07T03:28:24;3.92;;;3.22;;
65358;SDS011;52491;45.900;6.346;2022-12-07T03:30:59;4.70;;;3.28;;
65358;SDS011;52491;45.900;6.346;2022-12-07T03:33:38;3.30;;;3.00;;
65358;SDS011;52491;45.900;6.346;2022-12-07T03:36:29;3.83;;;3.10;;
65358;SDS011;52491;45.900;6.346;2022-12-07T03:41:49;3.08;;;2.78;;
65358;SDS011;52491;45.900;6.346;2022-12-07T03:44:16;3.53;;;3.08;;
65358;SDS011;52491;45.900;6.346;2022-12-07T03:52:24;3.67;;;3.38;;
65358;SDS011;52491;45.900;6.346;2022-12-07T03:57:27;3.97;;;3.53;;
65358;SDS011;52491;45.900;6.346;2022-12-07T03:59:55;3.95;;;3.28;;
65358;SDS011;52491;45.900;6.346;2022-12-07T04:02:22;4.25;;;3.85;;
65358;SDS011;52491;45.900;6.346;2022-12-07T04:04:50;4.47;;;4.05;;
65358;SDS011;52491;45.900;6.346;2022-12-07T04:07:16;4.95;;;3.60;;
65358;SDS011;52491;45.900;6.346;2022-12-07T04:09:41;3.55;;;3.25;;
65358;SDS011;52491;45.900;6.346;2022-12-07T04:12:07;3.63;;;3.33;;
65358;SDS011;52491;45.900;6.346;2022-12-07T04:14:33;3.17;;;2.83;;
65358;SDS011;52491;45.900;6.346;2022-12-07T04:16:58;3.40;;;3.08;;
65358;SDS011;52491;45.900;6.346;2022-12-07T04:19:28;5.95;;;3.17;;
65358;SDS011;52491;45.900;6.346;2022-12-07T04:21:55;3.97;;;3.60;;
65358;SDS011;52491;45.900;6.346;2022-12-07T04:24:22;3.08;;;2.70;;
65358;SDS011;52491;45.900;6.346;2022-12-07T04:26:48;3.42;;;2.95;;
65358;SDS011;52491;45.900;6.346;2022-12-07T04:29:14;4.65;;;3.50;;
65358;SDS011;52491;45.900;6.346;2022-12-07T04:31:41;4.15;;;3.75;;
65358;SDS011;52491;45.900;6.346;2022-12-07T04:34:07;3.38;;;2.83;;
65358;SDS011;52491;45.900;6.346;2022-12-07T04:36:33;3.78;;;3.22;;
65358;SDS011;52491;45.900;6.346;2022-12-07T04:38:59;8.57;;;3.45;;
65358;SDS011;52491;45.900;6.346;2022-12-07T04:41:25;3.63;;;3.08;;
65358;SDS011;52491;45.900;6.346;2022-12-07T04:43:58;5.78;;;2.85;;
65358;SDS011;52491;45.900;6.346;2022-12-07T04:46:25;5.50;;;3.33;;
65358;SDS011;52491;45.900;6.346;2022-12-07T04:48:53;7.65;;;3.13;;
65358;SDS011;52491;45.900;6.346;2022-12-07T04:51:20;5.82;;;3.20;;
65358;SDS011;52491;45.900;6.346;2022-12-07T04:53:47;2.88;;;2.67;;
65358;SDS011;52491;45.900;6.346;2022-12-07T04:56:14;4.70;;;3.58;;
65358;SDS011;52491;45.900;6.346;2022-12-07T04:58:40;5.22;;;3.83;;
65358;SDS011;52491;45.900;6.346;2022-12-07T05:01:06;3.88;;;3.15;;
65358;SDS011;52491;45.900;6.346;2022-12-07T05:03:32;7.53;;;4.10;;
65358;SDS011;52491;45.900;6.346;2022-12-07T05:05:58;4.95;;;3.10;;
65358;SDS011;52491;45.900;6.346;2022-12-07T05:08:24;4.15;;;3.47;;
65358;SDS011;52491;45.900;6.346;2022-12-07T05:10:50;6.07;;;3.08;;
65358;SDS011;52491;45.900;6.346;2022-12-07T05:13:15;2.85;;;2.65;;
65358;SDS011;52491;45.900;6.346;2022-12-07T05:15:41;3.75;;;2.90;;
65358;SDS011;52491;45.900;6.346;2022-12-07T05:18:09;3.47;;;2.85;;
65358;SDS011;52491;45.900;6.346;2022-12-07T05:20:37;4.28;;;3.10;;
65358;SDS011;52491;45.900;6.346;2022-12-07T05:23:04;4.53;;;3.40;;
65358;SDS011;52491;45.900;6.346;2022-12-07T05:25:30;3.90;;;2.95;;
65358;SDS011;52491;45.900;6.346;2022-12-07T05:27:55;7.45;;;2.95;;
65358;SDS011;52491;45.900;6.346;2022-12-07T05:30:22;4.72;;;2.90;;
65358;SDS011;52491;45.900;6.346;2022-12-07T05:32:49;5.30;;;2.97;;
65358;SDS011;52491;45.900;6.346;2022-12-07T05:35:15;4.45;;;3.05;;
65358;SDS011;52491;45.900;6.346;2022-12-07T05:37:41;3.67;;;3.03;;
65358;SDS011;52491;45.900;6.346;2022-12-07T05:40:07;3.13;;;2.83;;
65358;SDS011;52491;45.900;6.346;2022-12-07T05:42:33;5.07;;;3.40;;
65358;SDS011;52491;45.900;6.346;2022-12-07T05:44:59;3.42;;;3.13;;
65358;SDS011;52491;45.900;6.346;2022-12-07T05:47:25;3.53;;;3.15;;
65358;SDS011;52491;45.900;6.346;2022-12-07T05:49:50;4.40;;;3.15;;
65358;SDS011;52491;45.900;6.346;2022-12-07T05:52:16;3.70;;;3.03;;
65358;SDS011;52491;45.900;6.346;2022-12-07T05:54:41;4.82;;;3.58;;
65358;SDS011;52491;45.900;6.346;2022-12-07T05:57:07;7.05;;;3.58;;
65358;SDS011;52491;45.900;6.346;2022-12-07T05:59:33;3.80;;;3.50;;
65358;SDS011;52491;45.900;6.346;2022-12-07T06:02:00;3.88;;;2.95;;
65358;SDS011;52491;45.900;6.346;2022-12-07T06:04:29;5.18;;;3.55;;
65358;SDS011;52491;45.900;6.346;2022-12-07T06:06:57;5.63;;;2.97;;
65358;SDS011;52491;45.900;6.346;2022-12-07T06:09:23;7.28;;;2.78;;
65358;SDS011;52491;45.900;6.346;2022-12-07T06:11:50;3.63;;;3.00;;
65358;SDS011;52491;45.900;6.346;2022-12-07T06:14:35;3.35;;;3.05;;
65358;SDS011;52491;45.900;6.346;2022-12-07T06:17:01;5.97;;;3.10;;
65358;SDS011;52491;45.900;6.346;2022-12-07T06:19:27;3.17;;;2.80;;
65358;SDS011;52491;45.900;6.346;2022-12-07T06:21:52;3.20;;;2.90;;
65358;SDS011;52491;45.900;6.346;2022-12-07T06:24:18;4.10;;;3.10;;
65358;SDS011;52491;45.900;6.346;2022-12-07T06:26:44;3.17;;;2.88;;
65358;SDS011;52491;45.900;6.346;2022-12-07T06:29:10;4.55;;;3.53;;
65358;SDS011;52491;45.900;6.346;2022-12-07T06:31:37;6.38;;;3.50;;
65358;SDS011;52491;45.900;6.346;2022-12-07T06:34:04;4.28;;;3.67;;
65358;SDS011;52491;45.900;6.346;2022-12-07T06:36:31;5.10;;;3.20;;
65358;SDS011;52491;45.900;6.346;2022-12-07T06:38:57;9.77;;;3.70;;
65358;SDS011;52491;45.900;6.346;2022-12-07T06:41:23;7.38;;;3.70;;
65358;SDS011;52491;45.900;6.346;2022-12-07T06:43:49;5.95;;;3.92;;
65358;SDS011;52491;45.900;6.346;2022-12-07T06:46:15;8.80;;;4.68;;
65358;SDS011;52491;45.900;6.346;2022-12-07T06:48:41;5.35;;;3.78;;
65358;SDS011;52491;45.900;6.346;2022-12-07T06:51:07;5.13;;;4.05;;
65358;SDS011;52491;45.900;6.346;2022-12-07T06:53:34;6.60;;;3.85;;
65358;SDS011;52491;45.900;6.346;2022-12-07T06:56:00;5.43;;;4.07;;
65358;SDS011;52491;45.900;6.346;2022-12-07T06:58:25;5.80;;;4.35;;
65358;SDS011;52491;45.900;6.346;2022-12-07T07:00:51;6.72;;;3.85;;
65358;SDS011;52491;45.900;6.346;2022-12-07T07:03:17;8.00;;;4.15;;
65358;SDS011;52491;45.900;6.346;2022-12-07T07:05:43;6.45;;;4.10;;
65358;SDS011;52491;45.900;6.346;2022-12-07T07:08:10;5.43;;;4.45;;
65358;SDS011;52491;45.900;6.346;2022-12-07T07:10:36;5.10;;;4.53;;
65358;SDS011;52491;45.900;6.346;2022-12-07T07:13:02;7.65;;;4.88;;
65358;SDS011;52491;45.900;6.346;2022-12-07T07:15:28;5.68;;;4.95;;
65358;SDS011;52491;45.900;6.346;2022-12-07T07:17:55;4.82;;;4.15;;
65358;SDS011;52491;45.900;6.346;2022-12-07T07:20:21;5.80;;;4.35;;
65358;SDS011;52491;45.900;6.346;2022-12-07T07:22:47;5.43;;;4.15;;
65358;SDS011;52491;45.900;6.346;2022-12-07T07:25:14;8.50;;;4.55;;
65358;SDS011;52491;45.900;6.346;2022-12-07T07:27:40;7.10;;;4.53;;
65358;SDS011;52491;45.900;6.346;2022-12-07T07:30:06;4.47;;;4.07;;
65358;SDS011;52491;45.900;6.346;2022-12-07T07:32:32;6.97;;;4.63;;
65358;SDS011;52491;45.900;6.346;2022-12-07T07:34:58;6.00;;;4.97;;
65358;SDS011;52491;45.900;6.346;2022-12-07T07:37:23;5.35;;;4.43;;
65358;SDS011;52491;45.900;6.346;2022-12-07T07:39:49;6.85;;;4.28;;
65358;SDS011;52491;45.900;6.346;2022-12-07T07:42:15;4.80;;;4.03;;
65358;SDS011;52491;45.900;6.346;2022-12-07T07:44:40;5.93;;;4.70;;
65358;SDS011;52491;45.900;6.346;2022-12-07T07:47:06;5.00;;;4.50;;
65358;SDS011;52491;45.900;6.346;2022-12-07T07:49:31;5.28;;;4.63;;
65358;SDS011;52491;45.900;6.346;2022-12-07T07:51:57;5.13;;;4.35;;
65358;SDS011;52491;45.900;6.346;2022-12-07T07:54:23;6.13;;;4.72;;
65358;SDS011;52491;45.900;6.346;2022-12-07T07:56:48;5.93;;;5.32;;
65358;SDS011;52491;45.900;6.346;2022-12-07T07:59:14;5.03;;;4.38;;
65358;SDS011;52491;45.900;6.346;2022-12-07T08:01:40;5.90;;;4.78;;
65358;SDS011;52491;45.900;6.346;2022-12-07T08:04:06;5.40;;;4.90;;
65358;SDS011;52491;45.900;6.346;2022-12-07T08:06:31;7.63;;;5.10;;
65358;SDS011;52491;45.900;6.346;2022-12-07T08:08:57;5.50;;;4.47;;
65358;SDS011;52491;45.900;6.346;2022-12-07T08:11:23;4.65;;;4.25;;
65358;SDS011;52491;45.900;6.346;2022-12-07T08:13:49;5.57;;;4.97;;
65358;SDS011;52491;45.900;6.346;2022-12-07T08:16:15;5.78;;;4.72;;
65358;SDS011;52491;45.900;6.346;2022-12-07T08:18:41;6.70;;;5.25;;
65358;SDS011;52491;45.900;6.346;2022-12-07T08:21:09;6.15;;;5.20;;
65358;SDS011;52491;45.900;6.346;2022-12-07T08:23:37;5.50;;;4.95;;
65358;SDS011;52491;45.900;6.346;2022-12-07T08:26:04;6.53;;;4.28;;
65358;SDS011;52491;45.900;6.346;2022-12-07T08:28:31;5.72;;;5.03;;
65358;SDS011;52491;45.900;6.346;2022-12-07T08:31:11;7.65;;;5.88;;
65358;SDS011;52491;45.900;6.346;2022-12-07T08:33:38;5.45;;;4.82;;
65358;SDS011;52491;45.900;6.346;2022-12-07T08:36:05;10.30;;;5.22;;
65358;SDS011;52491;45.900;6.346;2022-12-07T08:38:36;6.68;;;5.30;;
65358;SDS011;52491;45.900;6.346;2022-12-07T08:41:02;6.13;;;4.78;;
65358;SDS011;52491;45.900;6.346;2022-12-07T08:43:28;8.20;;;5.00;;
65358;SDS011;52491;45.900;6.346;2022-12-07T08:49:26;8.02;;;5.63;;
65358;SDS011;52491;45.900;6.346;2022-12-07T08:51:47;7.47;;;6.07;;
65358;SDS011;52491;45.900;6.346;2022-12-07T08:54:15;9.07;;;6.25;;
65358;SDS011;52491;45.900;6.346;2022-12-07T08:56:42;8.70;;;6.50;;
65358;SDS011;52491;45.900;6.346;2022-12-07T08:59:11;6.95;;;5.75;;
65358;SDS011;52491;45.900;6.346;2022-12-07T09:01:40;7.53;;;5.53;;
65358;SDS011;52491;45.900;6.346;2022-12-07T09:04:05;6.18;;;5.57;;
65358;SDS011;52491;45.900;6.346;2022-12-07T09:06:31;6.53;;;5.50;;
65358;SDS011;52491;45.900;6.346;2022-12-07T09:08:57;6.40;;;5.20;;
65358;SDS011;52491;45.900;6.346;2022-12-07T09:11:25;5.65;;;5.05;;
65358;SDS011;52491;45.900;6.346;2022-12-07T09:13:50;6.57;;;5.22;;
65358;SDS011;52491;45.900;6.346;2022-12-07T09:16:16;5.53;;;5.00;;
65358;SDS011;52491;45.900;6.346;2022-12-07T09:18:41;7.93;;;5.28;;
65358;SDS011;52491;45.900;6.346;2022-12-07T09:21:07;5.45;;;4.75;;
65358;SDS011;52491;45.900;6.346;2022-12-07T09:23:33;5.30;;;4.80;;
65358;SDS011;52491;45.900;6.346;2022-12-07T09:26:02;5.97;;;4.70;;
65358;SDS011;52491;45.900;6.346;2022-12-07T09:28:29;7.00;;;5.30;;
65358;SDS011;52491;45.900;6.346;2022-12-07T09:30:56;4.95;;;4.45;;
65358;SDS011;52491;45.900;6.346;2022-12-07T09:33:21;5.43;;;4.93;;
65358;SDS011;52491;45.900;6.346;2022-12-07T09:35:48;6.07;;;4.13;;
65358;SDS011;52491;45.900;6.346;2022-12-07T09:38:14;5.30;;;4.28;;
65358;SDS011;52491;45.900;6.346;2022-12-07T09:40:40;5.57;;;5.05;;
65358;SDS011;52491;45.900;6.346;2022-12-07T09:43:12;5.03;;;4.53;;
65358;SDS011;52491;45.900;6.346;2022-12-07T09:45:40;4.32;;;3.88;;
65358;SDS011;52491;45.900;6.346;2022-12-07T09:48:11;4.88;;;4.25;;
65358;SDS011;52491;45.900;6.346;2022-12-07T09:50:44;4.38;;;3.85;;
65358;SDS011;52491;45.900;6.346;2022-12-07T09:56:01;3.60;;;3.30;;
65358;SDS011;52491;45.900;6.346;2022-12-07T09:58:27;4.93;;;4.35;;
65358;SDS011;52491;45.900;6.346;2022-12-07T10:03:32;3.90;;;3.55;;
65358;SDS011;52491;45.900;6.346;2022-12-07T10:06:00;4.57;;;4.18;;
65358;SDS011;52491;45.900;6.346;2022-12-07T10:08:27;4.05;;;3.60;;
65358;SDS011;52491;45.900;6.346;2022-12-07T10:10:54;4.43;;;4.00;;
65358;SDS011;52491;45.900;6.346;2022-12-07T10:14:09;6.78;;;3.90;;
65358;SDS011;52491;45.900;6.346;2022-12-07T10:19:18;5.57;;;3.67;;
65358;SDS011;52491;45.900;6.346;2022-12-07T10:22:14;4.05;;;3.13;;
65358;SDS011;52491;45.900;6.346;2022-12-07T10:24:42;4.15;;;3.60;;
65358;SDS011;52491;45.900;6.346;2022-12-07T10:29:47;3.90;;;3.50;;
65358;SDS011;52491;45.900;6.346;2022-12-07T10:34:40;3.08;;;2.78;;
65358;SDS011;52491;45.900;6.346;2022-12-07T10:37:14;3.15;;;2.95;;
65358;SDS011;52491;45.900;6.346;2022-12-07T10:39:46;4.35;;;3.67;;
65358;SDS011;52491;45.900;6.346;2022-12-07T10:42:23;3.88;;;3.47;;
65358;SDS011;52491;45.900;6.346;2022-12-07T10:44:49;4.05;;;3.13;;
65358;SDS011;52491;45.900;6.346;2022-12-07T10:47:35;3.67;;;3.33;;
65358;SDS011;52491;45.900;6.346;2022-12-07T10:50:36;6.65;;;4.07;;
65358;SDS011;52491;45.900;6.346;2022-12-07T10:58:25;4.13;;;3.72;;
65358;SDS011;52491;45.900;6.346;2022-12-07T11:04:21;4.35;;;3.95;;
65358;SDS011;52491;45.900;6.346;2022-12-07T11:12:54;4.47;;;4.07;;
65358;SDS011;52491;45.900;6.346;2022-12-07T11:24:15;3.92;;;3.33;;
65358;SDS011;52491;45.900;6.346;2022-12-07T11:26:48;5.15;;;4.53;;
65358;SDS011;52491;45.900;6.346;2022-12-07T11:29:55;4.82;;;3.72;;
65358;SDS011;52491;45.900;6.346;2022-12-07T11:32:34;6.78;;;3.47;;
65358;SDS011;52491;45.900;6.346;2022-12-07T11:37:48;5.50;;;4.35;;
65358;SDS011;52491;45.900;6.346;2022-12-07T11:40:37;10.82;;;6.35;;
65358;SDS011;52491;45.900;6.346;2022-12-07T11:45:42;8.30;;;3.70;;
65358;SDS011;52491;45.900;6.346;2022-12-07T11:51:03;7.53;;;3.75;;
65358;SDS011;52491;45.900;6.346;2022-12-07T11:53:37;9.30;;;3.75;;
65358;SDS011;52491;45.900;6.346;2022-12-07T11:56:12;6.57;;;3.45;;
65358;SDS011;52491;45.900;6.346;2022-12-07T12:03:46;4.70;;;3.53;;
65358;SDS011;52491;45.900;6.346;2022-12-07T12:06:14;5.38;;;3.15;;
65358;SDS011;52491;45.900;6.346;2022-12-07T12:08:44;7.13;;;3.55;;
65358;SDS011;52491;45.900;6.346;2022-12-07T12:14:08;5.60;;;2.83;;
65358;SDS011;52491;45.900;6.346;2022-12-07T12:22:10;6.63;;;5.93;;
65358;SDS011;52491;45.900;6.346;2022-12-07T12:24:47;13.10;;;7.40;;
65358;SDS011;52491;45.900;6.346;2022-12-07T12:27:23;7.80;;;5.07;;
65358;SDS011;52491;45.900;6.346;2022-12-07T12:29:55;4.97;;;4.45;;
65358;SDS011;52491;45.900;6.346;2022-12-07T12:32:37;5.80;;;4.30;;
65358;SDS011;52491;45.900;6.346;2022-12-07T12:35:22;5.63;;;3.80;;
65358;SDS011;52491;45.900;6.346;2022-12-07T12:40:43;4.10;;;3.50;;
65358;SDS011;52491;45.900;6.346;2022-12-07T12:54:23;5.20;;;3.22;;
65358;SDS011;52491;45.900;6.346;2022-12-07T13:13:04;4.65;;;3.45;;
65358;SDS011;52491;45.900;6.346;2022-12-07T13:23:17;3.92;;;3.47;;
65358;SDS011;52491;45.900;6.346;2022-12-07T13:28:25;2.63;;;2.42;;
65358;SDS011;52491;45.900;6.346;2022-12-07T13:33:54;5.38;;;4.80;;
65358;SDS011;52491;45.900;6.346;2022-12-07T13:36:22;3.85;;;3.08;;
65358;SDS011;52491;45.900;6.346;2022-12-07T13:38:50;4.35;;;3.10;;
65358;SDS011;52491;45.900;6.346;2022-12-07T13:41:35;3.72;;;3.17;;
65358;SDS011;52491;45.900;6.346;2022-12-07T13:44:02;4.72;;;3.40;;
65358;SDS011;52491;45.900;6.346;2022-12-07T13:46:48;5.05;;;3.22;;
65358;SDS011;52491;45.900;6.346;2022-12-07T13:49:23;3.03;;;2.72;;
65358;SDS011;52491;45.900;6.346;2022-12-07T13:51:50;4.15;;;3.45;;
65358;SDS011;52491;45.900;6.346;2022-12-07T13:54:17;3.42;;;3.00;;
65358;SDS011;52491;45.900;6.346;2022-12-07T13:56:46;2.70;;;2.50;;
65358;SDS011;52491;45.900;6.346;2022-12-07T13:59:19;3.42;;;3.13;;
65358;SDS011;52491;45.900;6.346;2022-12-07T14:01:48;3.53;;;2.85;;
65358;SDS011;52491;45.900;6.346;2022-12-07T14:04:24;6.45;;;2.95;;
65358;SDS011;52491;45.900;6.346;2022-12-07T14:06:58;3.38;;;2.92;;
65358;SDS011;52491;45.900;6.346;2022-12-07T14:09:25;2.67;;;2.47;;
65358;SDS011;52491;45.900;6.346;2022-12-07T14:11:52;5.53;;;2.80;;
65358;SDS011;52491;45.900;6.346;2022-12-07T14:14:22;2.88;;;2.67;;
65358;SDS011;52491;45.900;6.346;2022-12-07T14:16:57;6.35;;;3.20;;
65358;SDS011;52491;45.900;6.346;2022-12-07T14:19:44;3.03;;;2.78;;
65358;SDS011;52491;45.900;6.346;2022-12-07T14:27:32;4.43;;;2.67;;
65358;SDS011;52491;45.900;6.346;2022-12-07T14:30:00;3.30;;;2.75;;
65358;SDS011;52491;45.900;6.346;2022-12-07T14:32:27;3.05;;;2.75;;
65358;SDS011;52491;45.900;6.346;2022-12-07T14:37:28;3.47;;;3.17;;
65358;SDS011;52491;45.900;6.346;2022-12-07T14:39:55;2.72;;;2.33;;
65358;SDS011;52491;45.900;6.346;2022-12-07T14:42:20;3.50;;;3.03;;
65358;SDS011;52491;45.900;6.346;2022-12-07T14:44:50;3.17;;;2.90;;
65358;SDS011;52491;45.900;6.346;2022-12-07T14:47:15;3.05;;;2.75;;
65358;SDS011;52491;45.900;6.346;2022-12-07T14:49:41;3.72;;;3.33;;
65358;SDS011;52491;45.900;6.346;2022-12-07T14:52:09;3.40;;;3.10;;
65358;SDS011;52491;45.900;6.346;2022-12-07T14:54:43;5.20;;;3.33;;
65358;SDS011;52491;45.900;6.346;2022-12-07T14:57:09;3.15;;;2.85;;
65358;SDS011;52491;45.900;6.346;2022-12-07T14:59:36;3.17;;;2.65;;
65358;SDS011;52491;45.900;6.346;2022-12-07T15:02:02;3.47;;;3.05;;
65358;SDS011;52491;45.900;6.346;2022-12-07T15:04:28;4.30;;;3.08;;
65358;SDS011;52491;45.900;6.346;2022-12-07T15:07:01;4.15;;;3.60;;
65358;SDS011;52491;45.900;6.346;2022-12-07T15:09:29;3.67;;;2.88;;
65358;SDS011;52491;45.900;6.346;2022-12-07T15:11:54;3.97;;;3.47;;
65358;SDS011;52491;45.900;6.346;2022-12-07T15:14:20;4.40;;;3.53;;
65358;SDS011;52491;45.900;6.346;2022-12-07T15:16:45;3.60;;;3.30;;
65358;SDS011;52491;45.900;6.346;2022-12-07T15:19:12;4.65;;;2.95;;
65358;SDS011;52491;45.900;6.346;2022-12-07T15:21:43;3.75;;;3.03;;
65358;SDS011;52491;45.900;6.346;2022-12-07T15:24:09;2.90;;;2.70;;
65358;SDS011;52491;45.900;6.346;2022-12-07T15:26:36;2.97;;;2.65;;
65358;SDS011;52491;45.900;6.346;2022-12-07T15:29:03;4.22;;;2.90;;
65358;SDS011;52491;45.900;6.346;2022-12-07T15:31:28;4.30;;;2.80;;
65358;SDS011;52491;45.900;6.346;2022-12-07T15:33:54;3.30;;;3.00;;
65358;SDS011;52491;45.900;6.346;2022-12-07T15:36:24;5.57;;;2.85;;
65358;SDS011;52491;45.900;6.346;2022-12-07T15:38:52;4.15;;;3.75;;
65358;SDS011;52491;45.900;6.346;2022-12-07T15:41:18;3.22;;;2.92;;
65358;SDS011;52491;45.900;6.346;2022-12-07T15:43:44;3.30;;;2.97;;
65358;SDS011;52491;45.900;6.346;2022-12-07T15:46:32;3.78;;;2.58;;
65358;SDS011;52491;45.900;6.346;2022-12-07T15:49:01;3.78;;;2.47;;
65358;SDS011;52491;45.900;6.346;2022-12-07T15:51:27;3.45;;;3.15;;
65358;SDS011;52491;45.900;6.346;2022-12-07T15:53:53;3.83;;;2.72;;
65358;SDS011;52491;45.900;6.346;2022-12-07T15:56:19;3.15;;;2.70;;
65358;SDS011;52491;45.900;6.346;2022-12-07T15:58:45;3.42;;;2.85;;
65358;SDS011;52491;45.900;6.346;2022-12-07T16:01:14;3.95;;;2.88;;
65358;SDS011;52491;45.900;6.346;2022-12-07T16:03:44;4.63;;;2.63;;
65358;SDS011;52491;45.900;6.346;2022-12-07T16:06:15;3.22;;;2.92;;
65358;SDS011;52491;45.900;6.346;2022-12-07T16:08:45;2.47;;;2.28;;
65358;SDS011;52491;45.900;6.346;2022-12-07T16:11:12;2.50;;;2.30;;
65358;SDS011;52491;45.900;6.346;2022-12-07T16:13:38;2.95;;;2.65;;
65358;SDS011;52491;45.900;6.346;2022-12-07T16:16:09;2.55;;;2.13;;
65358;SDS011;52491;45.900;6.346;2022-12-07T16:18:37;4.70;;;2.58;;
65358;SDS011;52491;45.900;6.346;2022-12-07T16:21:03;2.90;;;2.65;;
65358;SDS011;52491;45.900;6.346;2022-12-07T16:23:29;2.70;;;2.13;;
65358;SDS011;52491;45.900;6.346;2022-12-07T16:26:03;2.55;;;2.00;;
65358;SDS011;52491;45.900;6.346;2022-12-07T16:28:32;2.97;;;2.78;;
65358;SDS011;52491;45.900;6.346;2022-12-07T16:31:02;2.53;;;2.33;;
65358;SDS011;52491;45.900;6.346;2022-12-07T16:33:35;3.22;;;2.75;;
65358;SDS011;52491;45.900;6.346;2022-12-07T16:36:03;2.75;;;2.55;;
65358;SDS011;52491;45.900;6.346;2022-12-07T16:38:31;4.85;;;2.50;;
65358;SDS011;52491;45.900;6.346;2022-12-07T16:40:57;2.92;;;2.38;;
65358;SDS011;52491;45.900;6.346;2022-12-07T16:43:22;3.08;;;2.78;;
65358;SDS011;52491;45.900;6.346;2022-12-07T16:45:48;4.65;;;2.63;;
65358;SDS011;52491;45.900;6.346;2022-12-07T16:48:14;8.73;;;4.40;;
65358;SDS011;52491;45.900;6.346;2022-12-07T16:50:41;4.07;;;3.60;;
65358;SDS011;52491;45.900;6.346;2022-12-07T16:53:11;7.93;;;3.28;;
65358;SDS011;52491;45.900;6.346;2022-12-07T16:55:44;5.40;;;3.70;;
65358;SDS011;52491;45.900;6.346;2022-12-07T16:58:11;5.00;;;3.93;;
65358;SDS011;52491;45.900;6.346;2022-12-07T17:00:39;7.03;;;3.83;;
65358;SDS011;52491;45.900;6.346;2022-12-07T17:03:06;14.00;;;5.93;;
65358;SDS011;52491;45.900;6.346;2022-12-07T17:05:32;4.10;;;3.70;;
65358;SDS011;52491;45.900;6.346;2022-12-07T17:07:58;5.93;;;4.55;;
65358;SDS011;52491;45.900;6.346;2022-12-07T17:10:24;10.25;;;4.32;;
65358;SDS011;52491;45.900;6.346;2022-12-07T17:12:50;8.80;;;4.15;;
65358;SDS011;52491;45.900;6.346;2022-12-07T17:15:17;11.80;;;5.40;;
65358;SDS011;52491;45.900;6.346;2022-12-07T17:17:56;9.90;;;4.60;;
65358;SDS011;52491;45.900;6.346;2022-12-07T17:20:24;6.05;;;5.32;;
65358;SDS011;52491;45.900;6.346;2022-12-07T17:22:51;9.13;;;5.35;;
65358;SDS011;52491;45.900;6.346;2022-12-07T17:25:19;7.10;;;4.38;;
65358;SDS011;52491;45.900;6.346;2022-12-07T17:27:45;7.25;;;4.35;;
65358;SDS011;52491;45.900;6.346;2022-12-07T17:30:11;5.63;;;4.60;;
65358;SDS011;52491;45.900;6.346;2022-12-07T17:32:38;4.72;;;4.10;;
65358;SDS011;52491;45.900;6.346;2022-12-07T17:35:04;5.32;;;4.22;;
65358;SDS011;52491;45.900;6.346;2022-12-07T17:37:31;4.95;;;3.70;;